Terminal Aerodrome Forecast
Issued by NWS

Home | Current Version | Previous Version | Text Only | Print | Product List | Glossary On
Versions: 1 2 3 4 5 6 7 8 9 10 11 12 13 14 15 16 17 18 19 20 21
861
FTUS44 KLIX 301137
TAFGPT
TAF
KGPT 301137Z 3012/0112 15014KT P6SM VCSH BKN015 OVC025
     FM301600 15014KT P6SM VCSH BKN025 OVC040
     FM302000 15013KT P6SM VCTS SCT025CB BKN040
      TEMPO 3022/3024 VRB25KT 2SM TSRA OVC015CB
     FM010000 15011KT P6SM SCT020 OVC040
     FM010300 16010KT P6SM OVC020=

USA.gov is the U.S. government's official web portal to all federal, state and local government web resources and services.